sensor_id;sensor_type;location;lat;lon;timestamp;P1;durP1;ratioP1;P2;durP2;ratioP2
19863;SDS011;10094;48.820;9.226;2023-11-19T00:04:43;4.05;;;2.80;;
19863;SDS011;10094;48.820;9.226;2023-11-19T00:11:25;5.05;;;3.88;;
19863;SDS011;10094;48.820;9.226;2023-11-19T00:18:07;3.65;;;3.10;;
19863;SDS011;10094;48.820;9.226;2023-11-19T00:24:50;7.32;;;4.93;;
19863;SDS011;10094;48.820;9.226;2023-11-19T00:31:32;3.90;;;3.50;;
19863;SDS011;10094;48.820;9.226;2023-11-19T00:38:15;3.30;;;3.00;;
19863;SDS011;10094;48.820;9.226;2023-11-19T00:44:57;3.67;;;2.88;;
19863;SDS011;10094;48.820;9.226;2023-11-19T00:51:39;4.43;;;3.30;;
19863;SDS011;10094;48.820;9.226;2023-11-19T00:58:22;11.18;;;7.30;;
19863;SDS011;10094;48.820;9.226;2023-11-19T01:05:04;4.32;;;3.58;;
19863;SDS011;10094;48.820;9.226;2023-11-19T01:11:50;6.32;;;3.40;;
19863;SDS011;10094;48.820;9.226;2023-11-19T01:18:32;3.40;;;2.45;;
19863;SDS011;10094;48.820;9.226;2023-11-19T01:25:15;3.08;;;2.45;;
19863;SDS011;10094;48.820;9.226;2023-11-19T01:31:58;2.60;;;2.00;;
19863;SDS011;10094;48.820;9.226;2023-11-19T01:38:40;3.10;;;2.05;;
19863;SDS011;10094;48.820;9.226;2023-11-19T01:45:31;2.38;;;2.15;;
19863;SDS011;10094;48.820;9.226;2023-11-19T01:52:15;2.10;;;1.90;;
19863;SDS011;10094;48.820;9.226;2023-11-19T01:58:58;2.97;;;2.55;;
19863;SDS011;10094;48.820;9.226;2023-11-19T02:05:41;3.28;;;2.10;;
19863;SDS011;10094;48.820;9.226;2023-11-19T02:12:23;4.28;;;2.35;;
19863;SDS011;10094;48.820;9.226;2023-11-19T02:19:06;2.15;;;1.95;;
19863;SDS011;10094;48.820;9.226;2023-11-19T02:32:47;2.33;;;2.13;;
19863;SDS011;10094;48.820;9.226;2023-11-19T02:39:30;2.97;;;2.42;;
19863;SDS011;10094;48.820;9.226;2023-11-19T02:46:13;2.83;;;2.50;;
19863;SDS011;10094;48.820;9.226;2023-11-19T02:52:57;3.15;;;2.78;;
19863;SDS011;10094;48.820;9.226;2023-11-19T02:59:39;8.35;;;3.63;;
19863;SDS011;10094;48.820;9.226;2023-11-19T03:06:24;4.72;;;3.58;;
19863;SDS011;10094;48.820;9.226;2023-11-19T03:13:10;5.63;;;3.45;;
19863;SDS011;10094;48.820;9.226;2023-11-19T03:19:57;5.40;;;3.50;;
19863;SDS011;10094;48.820;9.226;2023-11-19T03:26:39;3.72;;;3.35;;
19863;SDS011;10094;48.820;9.226;2023-11-19T03:33:22;5.28;;;3.85;;
19863;SDS011;10094;48.820;9.226;2023-11-19T03:40:04;7.25;;;4.35;;
19863;SDS011;10094;48.820;9.226;2023-11-19T03:46:48;5.13;;;4.15;;
19863;SDS011;10094;48.820;9.226;2023-11-19T03:53:30;4.80;;;4.30;;
19863;SDS011;10094;48.820;9.226;2023-11-19T04:00:13;5.88;;;4.45;;
19863;SDS011;10094;48.820;9.226;2023-11-19T04:06:56;6.57;;;5.25;;
19863;SDS011;10094;48.820;9.226;2023-11-19T04:13:39;6.25;;;4.63;;
19863;SDS011;10094;48.820;9.226;2023-11-19T04:20:22;6.25;;;4.43;;
19863;SDS011;10094;48.820;9.226;2023-11-19T04:27:04;2.60;;;1.80;;
19863;SDS011;10094;48.820;9.226;2023-11-19T04:33:48;1.80;;;1.70;;
19863;SDS011;10094;48.820;9.226;2023-11-19T04:40:30;1.88;;;1.40;;
19863;SDS011;10094;48.820;9.226;2023-11-19T04:47:13;2.85;;;1.00;;
19863;SDS011;10094;48.820;9.226;2023-11-19T04:53:56;0.85;;;0.85;;
19863;SDS011;10094;48.820;9.226;2023-11-19T05:00:38;1.38;;;0.98;;
19863;SDS011;10094;48.820;9.226;2023-11-19T05:07:20;2.45;;;0.80;;
19863;SDS011;10094;48.820;9.226;2023-11-19T05:14:03;1.40;;;0.80;;
19863;SDS011;10094;48.820;9.226;2023-11-19T05:20:45;1.77;;;1.10;;
19863;SDS011;10094;48.820;9.226;2023-11-19T05:27:28;1.30;;;0.82;;
19863;SDS011;10094;48.820;9.226;2023-11-19T05:34:10;1.65;;;0.80;;
19863;SDS011;10094;48.820;9.226;2023-11-19T05:40:53;0.65;;;0.60;;
19863;SDS011;10094;48.820;9.226;2023-11-19T05:47:35;0.90;;;0.47;;
19863;SDS011;10094;48.820;9.226;2023-11-19T05:54:18;0.40;;;0.40;;
19863;SDS011;10094;48.820;9.226;2023-11-19T06:01:00;1.10;;;0.70;;
19863;SDS011;10094;48.820;9.226;2023-11-19T06:07:43;0.80;;;0.68;;
19863;SDS011;10094;48.820;9.226;2023-11-19T06:14:26;1.40;;;0.70;;
19863;SDS011;10094;48.820;9.226;2023-11-19T06:21:08;0.77;;;0.40;;
19863;SDS011;10094;48.820;9.226;2023-11-19T06:27:51;0.50;;;0.50;;
19863;SDS011;10094;48.820;9.226;2023-11-19T06:34:34;0.60;;;0.60;;
19863;SDS011;10094;48.820;9.226;2023-11-19T06:41:16;1.25;;;0.55;;
19863;SDS011;10094;48.820;9.226;2023-11-19T06:48:01;0.50;;;0.50;;
19863;SDS011;10094;48.820;9.226;2023-11-19T06:54:45;0.90;;;0.80;;
19863;SDS011;10094;48.820;9.226;2023-11-19T07:01:27;1.00;;;0.70;;
19863;SDS011;10094;48.820;9.226;2023-11-19T07:08:09;1.83;;;0.70;;
19863;SDS011;10094;48.820;9.226;2023-11-19T07:14:52;1.00;;;0.73;;
19863;SDS011;10094;48.820;9.226;2023-11-19T07:21:39;0.88;;;0.75;;
19863;SDS011;10094;48.820;9.226;2023-11-19T07:28:25;0.85;;;0.70;;
19863;SDS011;10094;48.820;9.226;2023-11-19T07:35:10;0.77;;;0.60;;
19863;SDS011;10094;48.820;9.226;2023-11-19T07:41:53;0.60;;;0.60;;
19863;SDS011;10094;48.820;9.226;2023-11-19T07:48:35;1.40;;;0.52;;
19863;SDS011;10094;48.820;9.226;2023-11-19T07:55:18;3.17;;;1.15;;
19863;SDS011;10094;48.820;9.226;2023-11-19T08:02:01;1.17;;;1.08;;
19863;SDS011;10094;48.820;9.226;2023-11-19T08:08:43;0.65;;;0.65;;
19863;SDS011;10094;48.820;9.226;2023-11-19T08:15:26;0.65;;;0.65;;
19863;SDS011;10094;48.820;9.226;2023-11-19T08:22:11;0.77;;;0.70;;
19863;SDS011;10094;48.820;9.226;2023-11-19T08:28:54;0.60;;;0.60;;
19863;SDS011;10094;48.820;9.226;2023-11-19T08:35:36;1.70;;;0.60;;
19863;SDS011;10094;48.820;9.226;2023-11-19T08:42:19;0.82;;;0.60;;
19863;SDS011;10094;48.820;9.226;2023-11-19T08:49:02;2.97;;;0.80;;
19863;SDS011;10094;48.820;9.226;2023-11-19T08:55:44;1.33;;;0.60;;
19863;SDS011;10094;48.820;9.226;2023-11-19T09:02:26;1.30;;;0.77;;
19863;SDS011;10094;48.820;9.226;2023-11-19T09:09:09;0.80;;;0.75;;
19863;SDS011;10094;48.820;9.226;2023-11-19T09:15:51;1.02;;;0.90;;
19863;SDS011;10094;48.820;9.226;2023-11-19T09:22:34;1.98;;;0.73;;
19863;SDS011;10094;48.820;9.226;2023-11-19T09:29:16;2.45;;;1.00;;
19863;SDS011;10094;48.820;9.226;2023-11-19T09:35:59;1.77;;;0.98;;
19863;SDS011;10094;48.820;9.226;2023-11-19T09:42:44;1.27;;;1.00;;
19863;SDS011;10094;48.820;9.226;2023-11-19T09:49:29;2.28;;;1.10;;
19863;SDS011;10094;48.820;9.226;2023-11-19T09:56:15;1.02;;;0.90;;
19863;SDS011;10094;48.820;9.226;2023-11-19T10:03:00;0.98;;;0.80;;
19863;SDS011;10094;48.820;9.226;2023-11-19T10:09:43;1.02;;;0.90;;
19863;SDS011;10094;48.820;9.226;2023-11-19T10:16:28;1.55;;;0.90;;
19863;SDS011;10094;48.820;9.226;2023-11-19T10:23:12;1.30;;;1.20;;
19863;SDS011;10094;48.820;9.226;2023-11-19T10:29:55;1.42;;;1.13;;
19863;SDS011;10094;48.820;9.226;2023-11-19T10:36:41;4.15;;;1.27;;
19863;SDS011;10094;48.820;9.226;2023-11-19T10:43:24;2.13;;;1.38;;
19863;SDS011;10094;48.820;9.226;2023-11-19T10:50:07;3.17;;;1.40;;
19863;SDS011;10094;48.820;9.226;2023-11-19T10:56:51;2.97;;;1.38;;
19863;SDS011;10094;48.820;9.226;2023-11-19T11:03:40;1.58;;;0.82;;
19863;SDS011;10094;48.820;9.226;2023-11-19T11:10:25;1.30;;;0.95;;
19863;SDS011;10094;48.820;9.226;2023-11-19T11:17:08;1.85;;;1.00;;
19863;SDS011;10094;48.820;9.226;2023-11-19T11:37:55;2.47;;;1.05;;
19863;SDS011;10094;48.820;9.226;2023-11-19T11:44:59;2.70;;;1.25;;
19863;SDS011;10094;48.820;9.226;2023-11-19T11:51:59;4.07;;;1.10;;
19863;SDS011;10094;48.820;9.226;2023-11-19T11:58:42;2.67;;;1.00;;
19863;SDS011;10094;48.820;9.226;2023-11-19T12:05:29;1.20;;;1.10;;
19863;SDS011;10094;48.820;9.226;2023-11-19T12:12:22;2.58;;;1.20;;
19863;SDS011;10094;48.820;9.226;2023-11-19T12:19:08;2.78;;;1.30;;
19863;SDS011;10094;48.820;9.226;2023-11-19T12:25:51;2.38;;;1.60;;
19863;SDS011;10094;48.820;9.226;2023-11-19T12:32:40;2.65;;;1.30;;
19863;SDS011;10094;48.820;9.226;2023-11-19T12:39:24;1.10;;;1.00;;
19863;SDS011;10094;48.820;9.226;2023-11-19T12:46:22;1.90;;;1.15;;
19863;SDS011;10094;48.820;9.226;2023-11-19T12:53:05;3.08;;;1.55;;
19863;SDS011;10094;48.820;9.226;2023-11-19T12:59:54;2.25;;;1.15;;
19863;SDS011;10094;48.820;9.226;2023-11-19T13:06:44;1.05;;;0.90;;
19863;SDS011;10094;48.820;9.226;2023-11-19T13:13:56;2.03;;;1.10;;
19863;SDS011;10094;48.820;9.226;2023-11-19T13:20:39;1.35;;;1.00;;
19863;SDS011;10094;48.820;9.226;2023-11-19T13:27:22;2.92;;;0.93;;
19863;SDS011;10094;48.820;9.226;2023-11-19T13:34:05;2.17;;;1.38;;
19863;SDS011;10094;48.820;9.226;2023-11-19T13:40:50;1.25;;;1.13;;
19863;SDS011;10094;48.820;9.226;2023-11-19T13:47:33;2.03;;;1.20;;
19863;SDS011;10094;48.820;9.226;2023-11-19T13:54:15;1.30;;;1.20;;
19863;SDS011;10094;48.820;9.226;2023-11-19T14:00:58;1.42;;;1.05;;
19863;SDS011;10094;48.820;9.226;2023-11-19T14:07:41;2.88;;;1.77;;
19863;SDS011;10094;48.820;9.226;2023-11-19T14:14:24;1.85;;;1.00;;
19863;SDS011;10094;48.820;9.226;2023-11-19T14:21:06;9.38;;;5.40;;
19863;SDS011;10094;48.820;9.226;2023-11-19T14:27:49;1.10;;;0.98;;
19863;SDS011;10094;48.820;9.226;2023-11-19T14:34:32;1.10;;;1.00;;
19863;SDS011;10094;48.820;9.226;2023-11-19T14:41:14;2.40;;;1.20;;
19863;SDS011;10094;48.820;9.226;2023-11-19T14:47:57;2.85;;;2.00;;
19863;SDS011;10094;48.820;9.226;2023-11-19T14:54:39;5.78;;;2.05;;
19863;SDS011;10094;48.820;9.226;2023-11-19T15:01:22;3.33;;;1.10;;
19863;SDS011;10094;48.820;9.226;2023-11-19T15:08:05;1.27;;;1.08;;
19863;SDS011;10094;48.820;9.226;2023-11-19T15:14:47;1.63;;;1.20;;
19863;SDS011;10094;48.820;9.226;2023-11-19T15:21:30;1.70;;;1.00;;
19863;SDS011;10094;48.820;9.226;2023-11-19T15:28:14;1.33;;;1.10;;
19863;SDS011;10094;48.820;9.226;2023-11-19T15:34:57;1.27;;;1.10;;
19863;SDS011;10094;48.820;9.226;2023-11-19T15:41:40;1.65;;;1.30;;
19863;SDS011;10094;48.820;9.226;2023-11-19T15:48:23;3.22;;;1.38;;
19863;SDS011;10094;48.820;9.226;2023-11-19T15:55:07;1.40;;;0.98;;
19863;SDS011;10094;48.820;9.226;2023-11-19T16:01:51;1.30;;;1.05;;
19863;SDS011;10094;48.820;9.226;2023-11-19T16:08:33;1.70;;;1.10;;
19863;SDS011;10094;48.820;9.226;2023-11-19T16:15:16;1.33;;;0.98;;
19863;SDS011;10094;48.820;9.226;2023-11-19T16:22:18;2.22;;;0.85;;
19863;SDS011;10094;48.820;9.226;2023-11-19T16:29:03;1.98;;;1.10;;
19863;SDS011;10094;48.820;9.226;2023-11-19T16:35:46;2.67;;;1.30;;
19863;SDS011;10094;48.820;9.226;2023-11-19T16:42:28;3.95;;;1.40;;
19863;SDS011;10094;48.820;9.226;2023-11-19T16:49:11;2.35;;;1.60;;
19863;SDS011;10094;48.820;9.226;2023-11-19T16:55:55;4.72;;;1.27;;
19863;SDS011;10094;48.820;9.226;2023-11-19T17:02:38;3.03;;;1.35;;
19863;SDS011;10094;48.820;9.226;2023-11-19T17:09:27;5.10;;;1.38;;
19863;SDS011;10094;48.820;9.226;2023-11-19T17:16:09;3.70;;;1.80;;
19863;SDS011;10094;48.820;9.226;2023-11-19T17:22:52;3.92;;;1.88;;
19863;SDS011;10094;48.820;9.226;2023-11-19T17:29:37;4.57;;;2.15;;
19863;SDS011;10094;48.820;9.226;2023-11-19T17:36:20;5.75;;;2.28;;
19863;SDS011;10094;48.820;9.226;2023-11-19T17:43:03;7.65;;;2.85;;
19863;SDS011;10094;48.820;9.226;2023-11-19T17:49:46;7.13;;;2.80;;
19863;SDS011;10094;48.820;9.226;2023-11-19T17:56:29;4.63;;;2.28;;
19863;SDS011;10094;48.820;9.226;2023-11-19T18:03:11;4.43;;;2.05;;
19863;SDS011;10094;48.820;9.226;2023-11-19T18:09:54;1.88;;;1.40;;
19863;SDS011;10094;48.820;9.226;2023-11-19T18:16:37;4.68;;;1.60;;
19863;SDS011;10094;48.820;9.226;2023-11-19T18:23:20;2.80;;;1.30;;
19863;SDS011;10094;48.820;9.226;2023-11-19T18:30:02;2.83;;;1.60;;
19863;SDS011;10094;48.820;9.226;2023-11-19T18:36:47;2.35;;;1.70;;
19863;SDS011;10094;48.820;9.226;2023-11-19T18:43:30;2.17;;;1.45;;
19863;SDS011;10094;48.820;9.226;2023-11-19T18:50:12;4.32;;;1.77;;
19863;SDS011;10094;48.820;9.226;2023-11-19T18:56:55;2.97;;;1.50;;
19863;SDS011;10094;48.820;9.226;2023-11-19T19:03:39;25.25;;;18.15;;
19863;SDS011;10094;48.820;9.226;2023-11-19T19:10:23;7.22;;;3.90;;
19863;SDS011;10094;48.820;9.226;2023-11-19T19:17:06;3.95;;;2.17;;
19863;SDS011;10094;48.820;9.226;2023-11-19T19:23:51;4.07;;;1.95;;
19863;SDS011;10094;48.820;9.226;2023-11-19T19:30:33;4.90;;;2.22;;
19863;SDS011;10094;48.820;9.226;2023-11-19T19:37:16;3.45;;;2.15;;
19863;SDS011;10094;48.820;9.226;2023-11-19T19:43:58;4.22;;;2.10;;
19863;SDS011;10094;48.820;9.226;2023-11-19T19:50:40;5.40;;;2.05;;
19863;SDS011;10094;48.820;9.226;2023-11-19T19:57:23;4.53;;;2.15;;
19863;SDS011;10094;48.820;9.226;2023-11-19T20:04:06;6.13;;;2.25;;
19863;SDS011;10094;48.820;9.226;2023-11-19T20:10:48;6.10;;;2.00;;
19863;SDS011;10094;48.820;9.226;2023-11-19T20:17:31;6.85;;;2.05;;
19863;SDS011;10094;48.820;9.226;2023-11-19T20:24:13;8.05;;;2.42;;
19863;SDS011;10094;48.820;9.226;2023-11-19T20:30:58;7.10;;;2.90;;
19863;SDS011;10094;48.820;9.226;2023-11-19T20:37:41;9.57;;;2.15;;
19863;SDS011;10094;48.820;9.226;2023-11-19T20:44:24;7.03;;;2.63;;
19863;SDS011;10094;48.820;9.226;2023-11-19T20:51:09;8.50;;;2.40;;
19863;SDS011;10094;48.820;9.226;2023-11-19T20:57:51;5.47;;;2.13;;
19863;SDS011;10094;48.820;9.226;2023-11-19T21:04:35;9.10;;;2.97;;
19863;SDS011;10094;48.820;9.226;2023-11-19T21:11:17;10.55;;;3.10;;
19863;SDS011;10094;48.820;9.226;2023-11-19T21:18:00;11.20;;;2.72;;
19863;SDS011;10094;48.820;9.226;2023-11-19T21:24:42;11.55;;;2.70;;
19863;SDS011;10094;48.820;9.226;2023-11-19T21:31:25;11.85;;;3.17;;
19863;SDS011;10094;48.820;9.226;2023-11-19T21:38:08;8.98;;;3.63;;
19863;SDS011;10094;48.820;9.226;2023-11-19T21:44:51;9.82;;;2.92;;
19863;SDS011;10094;48.820;9.226;2023-11-19T21:51:38;8.93;;;3.00;;
19863;SDS011;10094;48.820;9.226;2023-11-19T21:58:21;11.68;;;2.95;;
19863;SDS011;10094;48.820;9.226;2023-11-19T22:05:07;12.82;;;2.63;;
19863;SDS011;10094;48.820;9.226;2023-11-19T22:11:50;12.63;;;2.72;;
19863;SDS011;10094;48.820;9.226;2023-11-19T22:18:33;10.85;;;3.42;;
19863;SDS011;10094;48.820;9.226;2023-11-19T22:25:15;8.90;;;2.80;;
19863;SDS011;10094;48.820;9.226;2023-11-19T22:31:58;14.00;;;3.10;;
19863;SDS011;10094;48.820;9.226;2023-11-19T22:38:40;8.43;;;2.90;;
19863;SDS011;10094;48.820;9.226;2023-11-19T22:45:23;9.82;;;2.80;;
19863;SDS011;10094;48.820;9.226;2023-11-19T22:52:06;10.73;;;3.00;;
19863;SDS011;10094;48.820;9.226;2023-11-19T22:58:49;11.35;;;2.95;;
19863;SDS011;10094;48.820;9.226;2023-11-19T23:05:31;12.45;;;3.67;;
19863;SDS011;10094;48.820;9.226;2023-11-19T23:12:16;12.60;;;3.10;;
19863;SDS011;10094;48.820;9.226;2023-11-19T23:18:59;6.30;;;2.17;;
19863;SDS011;10094;48.820;9.226;2023-11-19T23:25:42;12.27;;;3.95;;
19863;SDS011;10094;48.820;9.226;2023-11-19T23:32:24;8.63;;;2.55;;
19863;SDS011;10094;48.820;9.226;2023-11-19T23:39:07;10.88;;;2.70;;
19863;SDS011;10094;48.820;9.226;2023-11-19T23:45:50;9.50;;;2.60;;
19863;SDS011;10094;48.820;9.226;2023-11-19T23:52:33;11.00;;;3.72;;
19863;SDS011;10094;48.820;9.226;2023-11-19T23:59:16;9.93;;;3.03;;
